sensor_id;sensor_type;location;lat;lon;timestamp;noise_LAeq;noise_LA_min;noise_LA_max;noise_LA01;noise_LA95
67308;Laerm;57662;51.436;5.978;2023-02-01T00:00:00;39.92;34.95;50.64;;
67308;Laerm;57662;51.436;5.978;2023-02-01T00:00:11;41.61;34.91;52.68;;
67308;Laerm;57662;51.436;5.978;2023-02-01T00:00:21;40.91;35.58;52.39;;
67308;Laerm;57662;51.436;5.978;2023-02-01T00:00:31;39.68;35.75;52.44;;
67308;Laerm;57662;51.436;5.978;2023-02-01T00:00:44;42.98;35.69;57.63;;
67308;Laerm;57662;51.436;5.978;2023-02-01T00:00:54;36.52;34.86;40.25;;
67308;Laerm;57662;51.436;5.978;2023-02-01T00:01:05;38.50;34.59;48.78;;
67308;Laerm;57662;51.436;5.978;2023-02-01T00:01:15;37.13;34.48;41.56;;
67308;Laerm;57662;51.436;5.978;2023-02-01T00:01:25;37.35;35.34;43.95;;
67308;Laerm;57662;51.436;5.978;2023-02-01T00:01:36;40.09;34.99;50.67;;
67308;Laerm;57662;51.436;5.978;2023-02-01T00:01:46;41.76;35.44;56.05;;
67308;Laerm;57662;51.436;5.978;2023-02-01T00:01:56;39.52;36.61;44.30;;
67308;Laerm;57662;51.436;5.978;2023-02-01T00:02:06;44.55;37.35;57.78;;
67308;Laerm;57662;51.436;5.978;2023-02-01T00:02:17;45.99;37.61;56.23;;
67308;Laerm;57662;51.436;5.978;2023-02-01T00:02:27;39.88;36.86;49.26;;
67308;Laerm;57662;51.436;5.978;2023-02-01T00:02:37;39.45;36.67;46.94;;
67308;Laerm;57662;51.436;5.978;2023-02-01T00:02:50;40.59;35.18;54.85;;
67308;Laerm;57662;51.436;5.978;2023-02-01T00:03:00;36.12;34.44;39.35;;
67308;Laerm;57662;51.436;5.978;2023-02-01T00:03:11;36.44;35.10;38.30;;
67308;Laerm;57662;51.436;5.978;2023-02-01T00:03:22;36.51;34.61;37.92;;
67308;Laerm;57662;51.436;5.978;2023-02-01T00:03:33;37.58;35.05;44.75;;
67308;Laerm;57662;51.436;5.978;2023-02-01T00:03:43;43.26;35.25;55.53;;
67308;Laerm;57662;51.436;5.978;2023-02-01T00:03:54;52.49;36.73;68.49;;
67308;Laerm;57662;51.436;5.978;2023-02-01T00:04:04;47.78;36.45;66.46;;
67308;Laerm;57662;51.436;5.978;2023-02-01T00:04:14;45.40;36.03;53.80;;
67308;Laerm;57662;51.436;5.978;2023-02-01T00:04:25;48.31;36.26;61.19;;
67308;Laerm;57662;51.436;5.978;2023-02-01T00:04:35;45.52;36.00;56.98;;
67308;Laerm;57662;51.436;5.978;2023-02-01T00:04:45;38.51;35.41;49.52;;
67308;Laerm;57662;51.436;5.978;2023-02-01T00:04:56;37.82;34.65;47.75;;
67308;Laerm;57662;51.436;5.978;2023-02-01T00:05:07;43.40;34.72;55.04;;
67308;Laerm;57662;51.436;5.978;2023-02-01T00:05:17;40.77;34.11;50.46;;
67308;Laerm;57662;51.436;5.978;2023-02-01T00:05:27;42.51;33.89;52.94;;
67308;Laerm;57662;51.436;5.978;2023-02-01T00:05:38;39.25;34.30;48.03;;
67308;Laerm;57662;51.436;5.978;2023-02-01T00:05:54;40.05;34.75;50.74;;
67308;Laerm;57662;51.436;5.978;2023-02-01T00:06:05;40.11;35.03;52.11;;
67308;Laerm;57662;51.436;5.978;2023-02-01T00:06:15;40.56;35.34;55.85;;
67308;Laerm;57662;51.436;5.978;2023-02-01T00:06:25;50.10;36.60;60.95;;
67308;Laerm;57662;51.436;5.978;2023-02-01T00:06:35;46.35;36.04;59.52;;
67308;Laerm;57662;51.436;5.978;2023-02-01T00:06:45;48.45;36.96;59.31;;
67308;Laerm;57662;51.436;5.978;2023-02-01T00:06:56;57.80;41.13;69.25;;
67308;Laerm;57662;51.436;5.978;2023-02-01T00:07:06;48.91;34.41;63.09;;
67308;Laerm;57662;51.436;5.978;2023-02-01T00:07:16;49.52;32.98;62.12;;
67308;Laerm;57662;51.436;5.978;2023-02-01T00:07:27;42.90;34.07;53.94;;
67308;Laerm;57662;51.436;5.978;2023-02-01T00:07:37;44.30;35.51;59.87;;
67308;Laerm;57662;51.436;5.978;2023-02-01T00:07:47;44.48;35.70;55.44;;
67308;Laerm;57662;51.436;5.978;2023-02-01T00:07:59;53.26;36.05;66.21;;
67308;Laerm;57662;51.436;5.978;2023-02-01T00:08:09;56.53;39.40;70.70;;
67308;Laerm;57662;51.436;5.978;2023-02-01T00:08:19;53.45;35.50;66.67;;
67308;Laerm;57662;51.436;5.978;2023-02-01T00:08:29;45.96;34.59;60.06;;
67308;Laerm;57662;51.436;5.978;2023-02-01T00:08:40;47.09;34.87;58.52;;
67308;Laerm;57662;51.436;5.978;2023-02-01T00:08:53;41.67;33.91;52.47;;
67308;Laerm;57662;51.436;5.978;2023-02-01T00:09:04;43.13;33.33;58.72;;
67308;Laerm;57662;51.436;5.978;2023-02-01T00:09:14;45.26;33.47;57.58;;
67308;Laerm;57662;51.436;5.978;2023-02-01T00:09:25;36.84;33.63;47.65;;
67308;Laerm;57662;51.436;5.978;2023-02-01T00:09:35;36.38;32.46;47.16;;
67308;Laerm;57662;51.436;5.978;2023-02-01T00:09:45;40.34;34.35;47.97;;
67308;Laerm;57662;51.436;5.978;2023-02-01T00:09:55;47.14;41.84;53.63;;
67308;Laerm;57662;51.436;5.978;2023-02-01T00:10:06;42.24;34.72;48.86;;
67308;Laerm;57662;51.436;5.978;2023-02-01T00:10:17;37.63;34.87;46.41;;
67308;Laerm;57662;51.436;5.978;2023-02-01T00:10:27;38.81;36.66;44.10;;
67308;Laerm;57662;51.436;5.978;2023-02-01T00:10:38;38.16;36.24;41.92;;
67308;Laerm;57662;51.436;5.978;2023-02-01T00:10:48;40.87;33.85;54.96;;
67308;Laerm;57662;51.436;5.978;2023-02-01T00:11:05;40.48;34.41;52.31;;
67308;Laerm;57662;51.436;5.978;2023-02-01T00:11:15;45.42;33.52;56.91;;
67308;Laerm;57662;51.436;5.978;2023-02-01T00:11:25;38.09;33.92;47.83;;
67308;Laerm;57662;51.436;5.978;2023-02-01T00:11:36;39.29;33.15;50.96;;
67308;Laerm;57662;51.436;5.978;2023-02-01T00:11:46;43.19;34.61;55.25;;
67308;Laerm;57662;51.436;5.978;2023-02-01T00:11:56;45.79;33.32;58.48;;
67308;Laerm;57662;51.436;5.978;2023-02-01T00:12:09;46.07;35.52;57.85;;
67308;Laerm;57662;51.436;5.978;2023-02-01T00:12:19;44.45;35.04;60.40;;
67308;Laerm;57662;51.436;5.978;2023-02-01T00:12:30;43.39;34.71;54.45;;
67308;Laerm;57662;51.436;5.978;2023-02-01T00:12:40;48.21;34.23;60.40;;
67308;Laerm;57662;51.436;5.978;2023-02-01T00:12:50;37.99;33.95;46.64;;
67308;Laerm;57662;51.436;5.978;2023-02-01T00:13:00;40.15;34.61;52.33;;
67308;Laerm;57662;51.436;5.978;2023-02-01T00:13:11;42.82;35.13;54.06;;
67308;Laerm;57662;51.436;5.978;2023-02-01T00:13:21;39.55;34.05;53.11;;
67308;Laerm;57662;51.436;5.978;2023-02-01T00:13:32;36.29;33.98;44.88;;
67308;Laerm;57662;51.436;5.978;2023-02-01T00:13:42;38.05;34.05;50.74;;
67308;Laerm;57662;51.436;5.978;2023-02-01T00:13:53;39.27;33.85;50.71;;
67308;Laerm;57662;51.436;5.978;2023-02-01T00:14:03;38.13;33.79;51.19;;
67308;Laerm;57662;51.436;5.978;2023-02-01T00:14:13;38.09;34.03;49.14;;
67308;Laerm;57662;51.436;5.978;2023-02-01T00:14:24;34.45;32.94;38.36;;
67308;Laerm;57662;51.436;5.978;2023-02-01T00:14:34;38.72;33.02;52.38;;
67308;Laerm;57662;51.436;5.978;2023-02-01T00:14:48;40.95;34.39;54.00;;
67308;Laerm;57662;51.436;5.978;2023-02-01T00:14:58;35.37;32.99;41.35;;
67308;Laerm;57662;51.436;5.978;2023-02-01T00:15:08;36.76;33.44;43.94;;
67308;Laerm;57662;51.436;5.978;2023-02-01T00:15:19;41.78;33.97;52.82;;
67308;Laerm;57662;51.436;5.978;2023-02-01T00:15:30;42.63;32.98;52.19;;
67308;Laerm;57662;51.436;5.978;2023-02-01T00:15:40;37.22;33.59;46.97;;
67308;Laerm;57662;51.436;5.978;2023-02-01T00:15:51;35.75;33.19;40.74;;
67308;Laerm;57662;51.436;5.978;2023-02-01T00:16:21;39.36;33.42;52.64;;
67308;Laerm;57662;51.436;5.978;2023-02-01T00:16:31;38.51;32.36;48.76;;
67308;Laerm;57662;51.436;5.978;2023-02-01T00:16:42;37.24;32.86;48.25;;
67308;Laerm;57662;51.436;5.978;2023-02-01T00:16:52;39.53;33.73;52.50;;
67308;Laerm;57662;51.436;5.978;2023-02-01T00:17:02;36.06;33.00;45.30;;
67308;Laerm;57662;51.436;5.978;2023-02-01T00:17:12;42.81;33.97;54.93;;
67308;Laerm;57662;51.436;5.978;2023-02-01T00:17:23;42.23;33.73;54.56;;
67308;Laerm;57662;51.436;5.978;2023-02-01T00:17:33;40.39;32.97;55.11;;
67308;Laerm;57662;51.436;5.978;2023-02-01T00:17:43;36.15;32.90;44.56;;
67308;Laerm;57662;51.436;5.978;2023-02-01T00:17:54;35.56;32.76;48.34;;
67308;Laerm;57662;51.436;5.978;2023-02-01T00:18:04;37.80;33.05;49.77;;
67308;Laerm;57662;51.436;5.978;2023-02-01T00:18:15;36.07;32.88;43.61;;
67308;Laerm;57662;51.436;5.978;2023-02-01T00:18:25;34.92;32.85;40.20;;
67308;Laerm;57662;51.436;5.978;2023-02-01T00:18:35;35.49;33.07;41.73;;
67308;Laerm;57662;51.436;5.978;2023-02-01T00:18:47;38.87;34.20;49.96;;
67308;Laerm;57662;51.436;5.978;2023-02-01T00:19:02;37.97;33.49;48.39;;
67308;Laerm;57662;51.436;5.978;2023-02-01T00:19:13;35.50;33.03;41.93;;
67308;Laerm;57662;51.436;5.978;2023-02-01T00:19:24;42.34;33.66;58.57;;
67308;Laerm;57662;51.436;5.978;2023-02-01T00:19:34;41.65;33.68;51.25;;
67308;Laerm;57662;51.436;5.978;2023-02-01T00:19:44;39.69;33.76;49.11;;
67308;Laerm;57662;51.436;5.978;2023-02-01T00:19:55;39.07;33.83;48.48;;
67308;Laerm;57662;51.436;5.978;2023-02-01T00:20:05;44.54;33.29;56.46;;
67308;Laerm;57662;51.436;5.978;2023-02-01T00:20:16;42.42;34.16;57.48;;
67308;Laerm;57662;51.436;5.978;2023-02-01T00:20:26;35.99;32.95;43.20;;
67308;Laerm;57662;51.436;5.978;2023-02-01T00:20:36;35.89;32.70;48.55;;
67308;Laerm;57662;51.436;5.978;2023-02-01T00:20:46;34.61;32.34;36.22;;
67308;Laerm;57662;51.436;5.978;2023-02-01T00:20:57;35.28;33.57;37.46;;
67308;Laerm;57662;51.436;5.978;2023-02-01T00:21:07;35.32;33.42;40.95;;
67308;Laerm;57662;51.436;5.978;2023-02-01T00:21:18;35.76;33.73;38.24;;
67308;Laerm;57662;51.436;5.978;2023-02-01T00:21:29;44.17;34.63;60.05;;
67308;Laerm;57662;51.436;5.978;2023-02-01T00:21:40;49.00;36.74;59.24;;
67308;Laerm;57662;51.436;5.978;2023-02-01T00:21:50;49.43;34.56;60.02;;
67308;Laerm;57662;51.436;5.978;2023-02-01T00:22:00;40.63;32.99;51.35;;
67308;Laerm;57662;51.436;5.978;2023-02-01T00:22:11;37.52;33.29;49.91;;
67308;Laerm;57662;51.436;5.978;2023-02-01T00:22:21;34.56;32.61;38.56;;
67308;Laerm;57662;51.436;5.978;2023-02-01T00:22:31;35.35;33.46;42.36;;
67308;Laerm;57662;51.436;5.978;2023-02-01T00:22:42;38.38;33.69;50.12;;
67308;Laerm;57662;51.436;5.978;2023-02-01T00:22:52;38.90;33.50;51.76;;
67308;Laerm;57662;51.436;5.978;2023-02-01T00:23:03;35.36;33.26;37.12;;
67308;Laerm;57662;51.436;5.978;2023-02-01T00:23:13;36.40;33.32;45.73;;
67308;Laerm;57662;51.436;5.978;2023-02-01T00:23:23;37.28;32.92;46.24;;
67308;Laerm;57662;51.436;5.978;2023-02-01T00:23:34;35.26;33.16;41.25;;
67308;Laerm;57662;51.436;5.978;2023-02-01T00:23:44;35.01;32.69;44.00;;
67308;Laerm;57662;51.436;5.978;2023-02-01T00:23:55;34.22;32.69;35.75;;
67308;Laerm;57662;51.436;5.978;2023-02-01T00:24:05;35.44;33.05;43.33;;
67308;Laerm;57662;51.436;5.978;2023-02-01T00:24:16;35.42;33.07;39.95;;
67308;Laerm;57662;51.436;5.978;2023-02-01T00:24:26;35.87;32.80;45.54;;
67308;Laerm;57662;51.436;5.978;2023-02-01T00:24:36;34.57;32.19;42.42;;
67308;Laerm;57662;51.436;5.978;2023-02-01T00:24:46;33.70;32.28;35.42;;
67308;Laerm;57662;51.436;5.978;2023-02-01T00:24:57;34.15;31.85;39.07;;
67308;Laerm;57662;51.436;5.978;2023-02-01T00:25:07;35.14;33.00;41.96;;
67308;Laerm;57662;51.436;5.978;2023-02-01T00:25:17;34.37;32.11;39.23;;
67308;Laerm;57662;51.436;5.978;2023-02-01T00:25:27;34.77;32.83;39.69;;
67308;Laerm;57662;51.436;5.978;2023-02-01T00:25:38;33.99;32.36;35.67;;
67308;Laerm;57662;51.436;5.978;2023-02-01T00:25:48;33.98;32.32;35.49;;
67308;Laerm;57662;51.436;5.978;2023-02-01T00:25:59;34.83;32.92;36.88;;
67308;Laerm;57662;51.436;5.978;2023-02-01T00:26:12;37.62;33.23;50.37;;
67308;Laerm;57662;51.436;5.978;2023-02-01T00:26:33;45.74;33.65;57.73;;
67308;Laerm;57662;51.436;5.978;2023-02-01T00:26:44;38.16;33.51;46.75;;
67308;Laerm;57662;51.436;5.978;2023-02-01T00:26:55;38.86;33.80;46.68;;
67308;Laerm;57662;51.436;5.978;2023-02-01T00:27:05;35.79;33.49;43.85;;
67308;Laerm;57662;51.436;5.978;2023-02-01T00:27:16;37.00;32.97;50.28;;
67308;Laerm;57662;51.436;5.978;2023-02-01T00:27:30;35.91;32.98;48.50;;
67308;Laerm;57662;51.436;5.978;2023-02-01T00:27:40;37.86;32.24;50.02;;
67308;Laerm;57662;51.436;5.978;2023-02-01T00:27:50;45.85;32.53;55.79;;
67308;Laerm;57662;51.436;5.978;2023-02-01T00:28:00;40.99;33.96;49.08;;
67308;Laerm;57662;51.436;5.978;2023-02-01T00:28:11;38.00;33.66;46.50;;
67308;Laerm;57662;51.436;5.978;2023-02-01T00:28:22;34.79;32.98;40.83;;
67308;Laerm;57662;51.436;5.978;2023-02-01T00:28:33;35.67;32.42;45.59;;
67308;Laerm;57662;51.436;5.978;2023-02-01T00:28:44;34.08;32.51;40.85;;
67308;Laerm;57662;51.436;5.978;2023-02-01T00:28:54;34.21;32.97;35.82;;
67308;Laerm;57662;51.436;5.978;2023-02-01T00:29:05;34.65;32.88;37.14;;
67308;Laerm;57662;51.436;5.978;2023-02-01T00:29:16;35.19;33.05;44.50;;
67308;Laerm;57662;51.436;5.978;2023-02-01T00:29:27;34.89;33.40;36.57;;
67308;Laerm;57662;51.436;5.978;2023-02-01T00:29:37;36.64;33.12;44.78;;
67308;Laerm;57662;51.436;5.978;2023-02-01T00:29:47;39.49;33.91;54.53;;
67308;Laerm;57662;51.436;5.978;2023-02-01T00:29:58;37.49;32.89;44.99;;
67308;Laerm;57662;51.436;5.978;2023-02-01T00:30:08;34.98;32.00;44.90;;
67308;Laerm;57662;51.436;5.978;2023-02-01T00:30:19;38.81;32.70;50.45;;
67308;Laerm;57662;51.436;5.978;2023-02-01T00:30:29;39.96;32.89;52.40;;
67308;Laerm;57662;51.436;5.978;2023-02-01T00:30:39;35.83;32.74;45.73;;
67308;Laerm;57662;51.436;5.978;2023-02-01T00:30:55;35.38;32.44;47.57;;
67308;Laerm;57662;51.436;5.978;2023-02-01T00:31:05;37.59;32.88;48.73;;
67308;Laerm;57662;51.436;5.978;2023-02-01T00:31:16;34.66;32.51;43.37;;
67308;Laerm;57662;51.436;5.978;2023-02-01T00:31:26;33.99;32.35;36.06;;
67308;Laerm;57662;51.436;5.978;2023-02-01T00:31:36;33.77;32.26;36.50;;
67308;Laerm;57662;51.436;5.978;2023-02-01T00:31:49;34.39;32.54;40.64;;
67308;Laerm;57662;51.436;5.978;2023-02-01T00:31:59;35.07;32.28;43.20;;
67308;Laerm;57662;51.436;5.978;2023-02-01T00:32:09;34.52;32.72;39.38;;
67308;Laerm;57662;51.436;5.978;2023-02-01T00:32:19;34.77;32.73;37.36;;
67308;Laerm;57662;51.436;5.978;2023-02-01T00:32:30;34.47;32.73;36.42;;
67308;Laerm;57662;51.436;5.978;2023-02-01T00:32:41;34.05;32.47;39.72;;
67308;Laerm;57662;51.436;5.978;2023-02-01T00:32:52;34.82;32.25;42.96;;
67308;Laerm;57662;51.436;5.978;2023-02-01T00:33:02;33.81;32.47;34.96;;
67308;Laerm;57662;51.436;5.978;2023-02-01T00:33:12;34.14;32.43;37.31;;
67308;Laerm;57662;51.436;5.978;2023-02-01T00:33:22;34.67;32.26;42.96;;
67308;Laerm;57662;51.436;5.978;2023-02-01T00:33:33;33.81;32.17;37.61;;
67308;Laerm;57662;51.436;5.978;2023-02-01T00:33:46;33.52;32.05;36.25;;
67308;Laerm;57662;51.436;5.978;2023-02-01T00:33:56;33.59;32.03;35.05;;
67308;Laerm;57662;51.436;5.978;2023-02-01T00:34:06;34.93;32.12;46.37;;
67308;Laerm;57662;51.436;5.978;2023-02-01T00:34:17;34.18;31.92;39.19;;
67308;Laerm;57662;51.436;5.978;2023-02-01T00:34:27;34.49;32.86;39.35;;
67308;Laerm;57662;51.436;5.978;2023-02-01T00:34:37;34.34;32.46;37.86;;
67308;Laerm;57662;51.436;5.978;2023-02-01T00:34:48;34.32;32.77;37.88;;
67308;Laerm;57662;51.436;5.978;2023-02-01T00:34:58;33.93;32.25;38.79;;
67308;Laerm;57662;51.436;5.978;2023-02-01T00:35:09;33.54;32.07;36.01;;
67308;Laerm;57662;51.436;5.978;2023-02-01T00:35:19;33.67;31.96;36.33;;
67308;Laerm;57662;51.436;5.978;2023-02-01T00:35:29;33.46;31.75;35.90;;
67308;Laerm;57662;51.436;5.978;2023-02-01T00:35:39;33.68;31.98;37.85;;
67308;Laerm;57662;51.436;5.978;2023-02-01T00:35:50;33.77;32.34;37.47;;
67308;Laerm;57662;51.436;5.978;2023-02-01T00:36:00;33.47;31.76;34.94;;
67308;Laerm;57662;51.436;5.978;2023-02-01T00:36:11;33.85;32.10;35.35;;
67308;Laerm;57662;51.436;5.978;2023-02-01T00:36:21;34.01;32.38;37.12;;
67308;Laerm;57662;51.436;5.978;2023-02-01T00:36:32;34.64;32.47;38.80;;
67308;Laerm;57662;51.436;5.978;2023-02-01T00:36:43;37.20;32.82;45.07;;
67308;Laerm;57662;51.436;5.978;2023-02-01T00:36:53;36.68;32.96;46.33;;
67308;Laerm;57662;51.436;5.978;2023-02-01T00:37:04;34.54;32.30;39.40;;
67308;Laerm;57662;51.436;5.978;2023-02-01T00:37:14;34.35;32.07;37.50;;
67308;Laerm;57662;51.436;5.978;2023-02-01T00:37:24;33.71;32.23;35.02;;
67308;Laerm;57662;51.436;5.978;2023-02-01T00:37:34;33.49;31.82;35.09;;
67308;Laerm;57662;51.436;5.978;2023-02-01T00:37:45;34.76;32.45;39.75;;
67308;Laerm;57662;51.436;5.978;2023-02-01T00:37:55;44.82;33.56;58.13;;
67308;Laerm;57662;51.436;5.978;2023-02-01T00:38:05;36.92;33.32;45.32;;
67308;Laerm;57662;51.436;5.978;2023-02-01T00:38:15;35.43;32.98;41.05;;
67308;Laerm;57662;51.436;5.978;2023-02-01T00:38:26;34.51;32.83;41.35;;
67308;Laerm;57662;51.436;5.978;2023-02-01T00:38:37;37.79;32.84;47.14;;
67308;Laerm;57662;51.436;5.978;2023-02-01T00:38:47;35.64;32.97;42.85;;
67308;Laerm;57662;51.436;5.978;2023-02-01T00:38:58;35.15;32.58;39.74;;
67308;Laerm;57662;51.436;5.978;2023-02-01T00:39:08;37.51;32.77;49.99;;
67308;Laerm;57662;51.436;5.978;2023-02-01T00:39:19;35.39;32.27;43.46;;
67308;Laerm;57662;51.436;5.978;2023-02-01T00:39:29;36.22;32.63;44.66;;
67308;Laerm;57662;51.436;5.978;2023-02-01T00:39:39;34.46;32.50;39.73;;
67308;Laerm;57662;51.436;5.978;2023-02-01T00:39:50;33.81;31.60;35.87;;
67308;Laerm;57662;51.436;5.978;2023-02-01T00:40:00;33.89;32.17;35.65;;
67308;Laerm;57662;51.436;5.978;2023-02-01T00:40:10;35.66;32.44;43.74;;
67308;Laerm;57662;51.436;5.978;2023-02-01T00:40:21;34.39;32.31;40.11;;
67308;Laerm;57662;51.436;5.978;2023-02-01T00:40:31;38.90;32.87;50.68;;
67308;Laerm;57662;51.436;5.978;2023-02-01T00:40:41;38.27;33.78;48.75;;
67308;Laerm;57662;51.436;5.978;2023-02-01T00:40:51;35.33;32.77;41.36;;
67308;Laerm;57662;51.436;5.978;2023-02-01T00:41:05;34.27;32.36;38.80;;
67308;Laerm;57662;51.436;5.978;2023-02-01T00:41:17;34.13;31.96;38.72;;
67308;Laerm;57662;51.436;5.978;2023-02-01T00:41:28;35.55;32.68;46.55;;
67308;Laerm;57662;51.436;5.978;2023-02-01T00:41:38;34.96;32.84;40.62;;
67308;Laerm;57662;51.436;5.978;2023-02-01T00:41:48;36.56;32.70;48.12;;
67308;Laerm;57662;51.436;5.978;2023-02-01T00:41:59;35.43;32.21;42.68;;
67308;Laerm;57662;51.436;5.978;2023-02-01T00:42:09;36.19;33.13;41.25;;
67308;Laerm;57662;51.436;5.978;2023-02-01T00:42:20;36.26;33.72;45.17;;
67308;Laerm;57662;51.436;5.978;2023-02-01T00:42:30;47.14;33.53;58.28;;
67308;Laerm;57662;51.436;5.978;2023-02-01T00:42:42;43.58;33.00;60.21;;
67308;Laerm;57662;51.436;5.978;2023-02-01T00:42:52;38.16;32.81;48.43;;
67308;Laerm;57662;51.436;5.978;2023-02-01T00:43:02;35.03;32.83;41.75;;
67308;Laerm;57662;51.436;5.978;2023-02-01T00:43:12;35.72;33.69;43.28;;
67308;Laerm;57662;51.436;5.978;2023-02-01T00:43:23;35.03;33.11;40.01;;
67308;Laerm;57662;51.436;5.978;2023-02-01T00:43:33;36.30;33.39;48.00;;
67308;Laerm;57662;51.436;5.978;2023-02-01T00:43:44;38.46;32.97;50.79;;
67308;Laerm;57662;51.436;5.978;2023-02-01T00:43:54;38.93;32.25;53.76;;
67308;Laerm;57662;51.436;5.978;2023-02-01T00:44:04;45.48;34.28;56.01;;
67308;Laerm;57662;51.436;5.978;2023-02-01T00:44:15;38.47;32.92;49.42;;
67308;Laerm;57662;51.436;5.978;2023-02-01T00:44:25;35.94;32.50;44.51;;
67308;Laerm;57662;51.436;5.978;2023-02-01T00:44:35;35.32;33.12;43.87;;
67308;Laerm;57662;51.436;5.978;2023-02-01T00:44:45;35.71;32.71;46.14;;
67308;Laerm;57662;51.436;5.978;2023-02-01T00:44:56;34.28;32.52;37.40;;
67308;Laerm;57662;51.436;5.978;2023-02-01T00:45:07;39.74;33.26;51.79;;
67308;Laerm;57662;51.436;5.978;2023-02-01T00:45:17;35.46;32.74;43.46;;
67308;Laerm;57662;51.436;5.978;2023-02-01T00:45:28;35.65;33.12;43.60;;
67308;Laerm;57662;51.436;5.978;2023-02-01T00:45:38;36.63;32.56;46.06;;
67308;Laerm;57662;51.436;5.978;2023-02-01T00:45:48;41.26;33.03;52.85;;
67308;Laerm;57662;51.436;5.978;2023-02-01T00:45:59;37.99;33.22;49.89;;
67308;Laerm;57662;51.436;5.978;2023-02-01T00:46:09;36.65;32.92;46.85;;
67308;Laerm;57662;51.436;5.978;2023-02-01T00:46:20;36.92;32.61;47.47;;
67308;Laerm;57662;51.436;5.978;2023-02-01T00:46:31;40.08;33.22;54.37;;
67308;Laerm;57662;51.436;5.978;2023-02-01T00:46:41;38.29;33.19;48.31;;
67308;Laerm;57662;51.436;5.978;2023-02-01T00:46:52;35.19;32.54;41.44;;
67308;Laerm;57662;51.436;5.978;2023-02-01T00:47:02;37.35;32.28;49.78;;
67308;Laerm;57662;51.436;5.978;2023-02-01T00:47:12;38.62;33.19;50.43;;
67308;Laerm;57662;51.436;5.978;2023-02-01T00:47:22;41.04;33.98;51.34;;
67308;Laerm;57662;51.436;5.978;2023-02-01T00:47:32;36.12;32.74;46.51;;
67308;Laerm;57662;51.436;5.978;2023-02-01T00:47:43;34.91;32.74;40.48;;
67308;Laerm;57662;51.436;5.978;2023-02-01T00:47:53;34.75;33.01;40.21;;
67308;Laerm;57662;51.436;5.978;2023-02-01T00:48:03;34.46;33.13;35.94;;
67308;Laerm;57662;51.436;5.978;2023-02-01T00:48:14;36.38;32.39;45.71;;
67308;Laerm;57662;51.436;5.978;2023-02-01T00:48:25;35.52;32.27;41.68;;
67308;Laerm;57662;51.436;5.978;2023-02-01T00:48:35;34.45;32.52;39.17;;
67308;Laerm;57662;51.436;5.978;2023-02-01T00:48:46;34.38;32.65;37.00;;
67308;Laerm;57662;51.436;5.978;2023-02-01T00:48:56;34.17;32.26;41.70;;
67308;Laerm;57662;51.436;5.978;2023-02-01T00:49:06;35.45;32.49;46.48;;
67308;Laerm;57662;51.436;5.978;2023-02-01T00:49:18;36.03;32.99;46.44;;
67308;Laerm;57662;51.436;5.978;2023-02-01T00:49:29;34.79;32.62;39.09;;
67308;Laerm;57662;51.436;5.978;2023-02-01T00:49:39;34.09;32.67;35.91;;
67308;Laerm;57662;51.436;5.978;2023-02-01T00:49:49;36.98;32.92;45.45;;
67308;Laerm;57662;51.436;5.978;2023-02-01T00:49:59;37.10;33.25;43.15;;
67308;Laerm;57662;51.436;5.978;2023-02-01T00:50:10;34.01;32.04;36.15;;
67308;Laerm;57662;51.436;5.978;2023-02-01T00:50:20;37.62;32.74;50.55;;
67308;Laerm;57662;51.436;5.978;2023-02-01T00:50:30;34.92;33.28;37.90;;
67308;Laerm;57662;51.436;5.978;2023-02-01T00:50:44;36.01;33.11;42.86;;
67308;Laerm;57662;51.436;5.978;2023-02-01T00:50:54;41.79;33.51;55.42;;
67308;Laerm;57662;51.436;5.978;2023-02-01T00:51:08;38.41;32.99;49.78;;
67308;Laerm;57662;51.436;5.978;2023-02-01T00:51:20;39.30;33.21;49.75;;
67308;Laerm;57662;51.436;5.978;2023-02-01T00:51:30;39.20;33.92;49.38;;
67308;Laerm;57662;51.436;5.978;2023-02-01T00:51:41;36.97;32.74;47.38;;
67308;Laerm;57662;51.436;5.978;2023-02-01T00:51:51;34.78;32.54;38.65;;
67308;Laerm;57662;51.436;5.978;2023-02-01T00:52:01;34.77;32.94;38.25;;
67308;Laerm;57662;51.436;5.978;2023-02-01T00:52:11;36.22;33.01;43.28;;
67308;Laerm;57662;51.436;5.978;2023-02-01T00:52:22;36.42;33.28;44.45;;
67308;Laerm;57662;51.436;5.978;2023-02-01T00:52:32;35.80;33.02;42.99;;
67308;Laerm;57662;51.436;5.978;2023-02-01T00:52:42;36.98;32.78;44.60;;
67308;Laerm;57662;51.436;5.978;2023-02-01T00:52:52;34.43;32.28;37.32;;
67308;Laerm;57662;51.436;5.978;2023-02-01T00:53:02;34.53;33.11;38.08;;
67308;Laerm;57662;51.436;5.978;2023-02-01T00:53:13;37.94;32.63;51.30;;
67308;Laerm;57662;51.436;5.978;2023-02-01T00:53:23;38.68;33.55;51.52;;
67308;Laerm;57662;51.436;5.978;2023-02-01T00:53:33;40.91;35.75;50.22;;
67308;Laerm;57662;51.436;5.978;2023-02-01T00:53:43;47.92;35.33;61.09;;
67308;Laerm;57662;51.436;5.978;2023-02-01T00:53:54;47.29;35.62;57.76;;
67308;Laerm;57662;51.436;5.978;2023-02-01T00:54:04;46.71;34.77;59.28;;
67308;Laerm;57662;51.436;5.978;2023-02-01T00:54:15;40.12;33.93;49.87;;
67308;Laerm;57662;51.436;5.978;2023-02-01T00:54:28;39.28;33.65;49.53;;
67308;Laerm;57662;51.436;5.978;2023-02-01T00:54:38;43.18;34.43;54.32;;
67308;Laerm;57662;51.436;5.978;2023-02-01T00:54:48;50.63;36.60;62.09;;
67308;Laerm;57662;51.436;5.978;2023-02-01T00:54:59;50.40;35.92;61.54;;
67308;Laerm;57662;51.436;5.978;2023-02-01T00:55:09;43.98;35.80;57.86;;
67308;Laerm;57662;51.436;5.978;2023-02-01T00:55:19;45.96;34.65;57.47;;
67308;Laerm;57662;51.436;5.978;2023-02-01T00:55:29;38.28;35.22;49.40;;
67308;Laerm;57662;51.436;5.978;2023-02-01T00:55:40;40.00;35.02;52.66;;
67308;Laerm;57662;51.436;5.978;2023-02-01T00:55:50;39.52;35.25;51.28;;
67308;Laerm;57662;51.436;5.978;2023-02-01T00:56:00;44.97;35.49;54.80;;
67308;Laerm;57662;51.436;5.978;2023-02-01T00:56:11;40.20;34.82;48.06;;
67308;Laerm;57662;51.436;5.978;2023-02-01T00:56:21;36.73;33.43;44.63;;
67308;Laerm;57662;51.436;5.978;2023-02-01T00:56:31;35.61;33.46;43.24;;
67308;Laerm;57662;51.436;5.978;2023-02-01T00:56:42;40.05;34.39;49.96;;
67308;Laerm;57662;51.436;5.978;2023-02-01T00:56:52;42.01;35.50;57.09;;
67308;Laerm;57662;51.436;5.978;2023-02-01T00:57:02;41.58;34.77;52.70;;
67308;Laerm;57662;51.436;5.978;2023-02-01T00:57:12;40.65;34.16;53.47;;
67308;Laerm;57662;51.436;5.978;2023-02-01T00:57:23;44.20;34.70;53.08;;
67308;Laerm;57662;51.436;5.978;2023-02-01T00:57:33;36.79;33.64;45.74;;
67308;Laerm;57662;51.436;5.978;2023-02-01T00:57:43;42.19;34.31;54.98;;
67308;Laerm;57662;51.436;5.978;2023-02-01T00:57:53;40.58;34.70;53.88;;
67308;Laerm;57662;51.436;5.978;2023-02-01T00:58:03;41.00;35.27;50.63;;
67308;Laerm;57662;51.436;5.978;2023-02-01T00:58:15;40.79;35.39;49.55;;
67308;Laerm;57662;51.436;5.978;2023-02-01T00:58:26;40.32;35.65;50.01;;
67308;Laerm;57662;51.436;5.978;2023-02-01T00:58:36;41.56;36.33;55.50;;
67308;Laerm;57662;51.436;5.978;2023-02-01T00:58:47;40.79;37.09;48.62;;
67308;Laerm;57662;51.436;5.978;2023-02-01T00:58:57;39.84;36.72;48.16;;
67308;Laerm;57662;51.436;5.978;2023-02-01T00:59:10;38.42;35.92;48.22;;
67308;Laerm;57662;51.436;5.978;2023-02-01T00:59:21;40.45;35.56;50.65;;
67308;Laerm;57662;51.436;5.978;2023-02-01T00:59:31;39.04;34.47;49.55;;
67308;Laerm;57662;51.436;5.978;2023-02-01T00:59:41;37.72;35.36;44.13;;